Time;durP1;ratioP1;P1;durP2;ratioP2;P2;SDS_P1;SDS_P2;PMS_P1;PMS_P2;Temp;Humidity;BMP_temperature;BMP_pressure;BME280_temperature;BME280_humidity;BME280_pressure;Samples;Min_cycle;Max_cycle;Signal;HPM_P1;HPM_P2
2022/05/04 00:01:50;;;;;;;13.10;2.80;;;;;;;;;;5094670;28;20619;-69
2022/05/04 00:04:17;;;;;;;17.17;2.80;;;;;;;;;;5094928;28;20612;-68
2022/05/04 00:06:45;;;;;;;12.73;3.35;;;;;;;;;;5094958;28;20230;-68
2022/05/04 00:09:12;;;;;;;15.13;3.40;;;;;;;;;;5094406;28;20195;-68
2022/05/04 00:11:40;;;;;;;13.20;2.72;;;;;;;;;;5095205;28;20220;-68
2022/05/04 00:14:09;;;;;;;13.52;3.10;;;;;;;;;;5094636;28;20221;-68
2022/05/04 00:16:36;;;;;;;13.02;3.10;;;;;;;;;;5094441;28;20196;-68
2022/05/04 00:19:04;;;;;;;14.15;3.10;;;;;;;;;;5094400;28;20197;-68
2022/05/04 00:21:31;;;;;;;14.52;3.10;;;;;;;;;;5094428;28;20202;-68
2022/05/04 00:23:58;;;;;;;13.63;2.90;;;;;;;;;;5094201;28;20241;-68
2022/05/04 00:26:26;;;;;;;12.43;2.80;;;;;;;;;;5094541;28;20193;-68
2022/05/04 00:28:53;;;;;;;13.45;3.60;;;;;;;;;;5094688;28;20209;-68
2022/05/04 00:31:23;;;;;;;13.00;3.00;;;;;;;;;;5094288;28;20209;-68
2022/05/04 00:33:50;;;;;;;13.40;3.15;;;;;;;;;;5094089;28;20709;-68
2022/05/04 00:36:18;;;;;;;15.27;3.30;;;;;;;;;;5094519;28;20216;-70
2022/05/04 00:38:45;;;;;;;12.98;3.22;;;;;;;;;;5094211;28;20317;-70
2022/05/04 00:41:13;;;;;;;13.93;3.60;;;;;;;;;;5093765;28;20203;-68
2022/05/04 00:43:40;;;;;;;13.90;2.97;;;;;;;;;;5094074;28;20202;-68
2022/05/04 00:46:08;;;;;;;14.35;3.38;;;;;;;;;;5093884;28;20200;-68
2022/05/04 00:48:37;;;;;;;17.40;4.03;;;;;;;;;;5094372;28;20229;-70
2022/05/04 00:51:05;;;;;;;13.95;2.90;;;;;;;;;;5094034;28;20211;-70
2022/05/04 00:53:32;;;;;;;13.05;3.47;;;;;;;;;;5093633;28;20203;-70
2022/05/04 00:56:01;;;;;;;13.63;2.95;;;;;;;;;;5093725;28;20235;-70
2022/05/04 01:01:13;;;;;;;14.10;3.05;;;;;;;;;;5093545;28;20680;-70
2022/05/04 01:03:42;;;;;;;14.00;3.58;;;;;;;;;;5093712;28;20720;-70
2022/05/04 01:06:10;;;;;;;12.80;3.25;;;;;;;;;;5093631;28;20202;-68
2022/05/04 01:08:37;;;;;;;14.02;3.97;;;;;;;;;;5093617;28;20596;-68
2022/05/04 01:11:05;;;;;;;13.38;3.70;;;;;;;;;;5093289;28;20670;-67
2022/05/04 01:13:33;;;;;;;14.82;4.10;;;;;;;;;;5093483;28;20550;-67
2022/05/04 01:16:00;;;;;;;14.88;3.40;;;;;;;;;;5093752;28;20207;-68
2022/05/04 01:18:27;;;;;;;12.52;3.17;;;;;;;;;;5093126;28;20219;-69
2022/05/04 01:20:57;;;;;;;15.27;3.67;;;;;;;;;;5093350;28;20577;-68
2022/05/04 01:23:27;;;;;;;13.35;3.20;;;;;;;;;;5093245;28;20592;-68
2022/05/04 01:25:54;;;;;;;16.73;3.30;;;;;;;;;;5093225;28;20665;-68
2022/05/04 01:28:22;;;;;;;13.75;3.25;;;;;;;;;;5093710;28;20590;-67
2022/05/04 01:30:49;;;;;;;12.80;3.17;;;;;;;;;;5093243;28;20200;-68
2022/05/04 01:33:16;;;;;;;13.50;3.50;;;;;;;;;;5092868;28;20199;-68
2022/05/04 01:35:44;;;;;;;14.05;4.00;;;;;;;;;;5092873;28;20203;-67
2022/05/04 01:38:12;;;;;;;12.55;2.60;;;;;;;;;;5092816;28;20612;-68
2022/05/04 01:40:41;;;;;;;13.63;3.45;;;;;;;;;;5092922;28;20199;-67
2022/05/04 01:43:08;;;;;;;14.02;3.20;;;;;;;;;;5093028;28;20196;-68
2022/05/04 01:45:36;;;;;;;12.60;3.30;;;;;;;;;;5092922;28;20213;-68
2022/05/04 01:48:03;;;;;;;12.85;3.45;;;;;;;;;;5092936;28;20233;-67
2022/05/04 01:50:30;;;;;;;16.45;3.53;;;;;;;;;;5092810;28;20196;-68
2022/05/04 01:52:58;;;;;;;12.93;3.10;;;;;;;;;;5092874;28;20198;-68
2022/05/04 01:55:27;;;;;;;12.82;3.20;;;;;;;;;;5092610;28;20230;-68
2022/05/04 01:57:56;;;;;;;14.55;3.63;;;;;;;;;;5092793;28;20226;-68
2022/05/04 02:00:24;;;;;;;14.68;3.25;;;;;;;;;;5092629;28;20200;-68
2022/05/04 02:02:51;;;;;;;15.60;4.22;;;;;;;;;;5092461;28;20307;-68
2022/05/04 02:05:19;;;;;;;13.10;3.47;;;;;;;;;;5092406;28;20283;-68
2022/05/04 02:07:47;;;;;;;13.48;3.60;;;;;;;;;;5091995;28;20210;-68
2022/05/04 02:10:14;;;;;;;15.30;4.10;;;;;;;;;;5092366;28;20702;-68
2022/05/04 02:12:42;;;;;;;17.67;3.63;;;;;;;;;;5092554;28;20200;-68
2022/05/04 02:15:11;;;;;;;13.38;3.20;;;;;;;;;;5092409;28;20282;-68
2022/05/04 02:17:39;;;;;;;17.25;3.38;;;;;;;;;;5092290;28;20752;-68
2022/05/04 02:20:07;;;;;;;12.25;3.13;;;;;;;;;;5092149;28;20204;-68
2022/05/04 02:22:35;;;;;;;13.35;3.00;;;;;;;;;;5092581;28;20227;-68
2022/05/04 02:25:02;;;;;;;13.38;3.40;;;;;;;;;;5092726;28;20585;-68
2022/05/04 02:27:31;;;;;;;15.05;3.67;;;;;;;;;;5092199;28;20691;-68
2022/05/04 02:29:58;;;;;;;13.63;3.72;;;;;;;;;;5092197;28;20581;-68
2022/05/04 02:32:27;;;;;;;14.63;3.65;;;;;;;;;;5092167;28;20299;-68
2022/05/04 02:37:59;;;;;;;14.02;3.70;;;;;;;;;;5092510;28;20243;-68
2022/05/04 02:40:27;;;;;;;12.70;3.38;;;;;;;;;;5092445;28;20572;-68
2022/05/04 02:42:55;;;;;;;14.95;3.60;;;;;;;;;;5091885;28;20196;-68
2022/05/04 02:45:23;;;;;;;12.27;3.10;;;;;;;;;;5091962;28;20278;-69
2022/05/04 02:47:52;;;;;;;14.50;3.47;;;;;;;;;;5092009;28;20654;-68
2022/05/04 02:50:19;;;;;;;14.10;3.85;;;;;;;;;;5091875;28;20204;-68
2022/05/04 02:52:47;;;;;;;14.75;3.65;;;;;;;;;;5091918;28;20206;-68
2022/05/04 02:55:14;;;;;;;15.77;3.72;;;;;;;;;;5091723;28;20299;-68
2022/05/04 02:57:42;;;;;;;13.50;3.22;;;;;;;;;;5092253;28;20227;-68
2022/05/04 03:00:10;;;;;;;12.98;3.15;;;;;;;;;;5091789;28;20665;-68
2022/05/04 03:02:37;;;;;;;16.83;3.65;;;;;;;;;;5091712;28;20697;-68
2022/05/04 03:05:07;;;;;;;13.77;3.58;;;;;;;;;;5091973;28;20231;-68
2022/05/04 03:07:34;;;;;;;12.20;2.80;;;;;;;;;;5091759;28;20204;-68
2022/05/04 03:10:02;;;;;;;14.90;4.40;;;;;;;;;;5091626;28;20196;-68
2022/05/04 03:12:29;;;;;;;14.38;3.85;;;;;;;;;;5091922;28;20192;-68
2022/05/04 03:14:57;;;;;;;13.57;3.15;;;;;;;;;;5091620;28;20203;-68
2022/05/04 03:17:25;;;;;;;14.48;3.47;;;;;;;;;;5091842;28;20287;-68
2022/05/04 03:19:53;;;;;;;12.10;2.80;;;;;;;;;;5095770;28;20280;-68
2022/05/04 03:22:21;;;;;;;13.30;3.13;;;;;;;;;;5095776;28;20196;-68
2022/05/04 03:24:49;;;;;;;14.65;4.15;;;;;;;;;;5095946;28;20327;-68
2022/05/04 03:27:16;;;;;;;14.80;4.30;;;;;;;;;;5095716;28;20693;-68
2022/05/04 03:29:44;;;;;;;21.70;3.53;;;;;;;;;;5095959;28;20218;-68
2022/05/04 03:32:11;;;;;;;16.30;3.80;;;;;;;;;;5095276;28;20207;-68
2022/05/04 03:34:39;;;;;;;12.93;3.53;;;;;;;;;;5095407;28;20192;-68
2022/05/04 03:37:07;;;;;;;14.07;3.75;;;;;;;;;;5095344;28;20195;-68
2022/05/04 03:39:36;;;;;;;13.68;3.63;;;;;;;;;;5095144;28;20235;-68
2022/05/04 03:42:04;;;;;;;13.88;2.90;;;;;;;;;;5095817;28;20196;-68
2022/05/04 03:44:31;;;;;;;13.13;3.00;;;;;;;;;;5095518;28;20204;-68
2022/05/04 03:46:58;;;;;;;13.23;3.35;;;;;;;;;;5095191;28;20207;-68
2022/05/04 03:49:26;;;;;;;13.50;3.50;;;;;;;;;;5094867;28;20200;-69
2022/05/04 03:51:53;;;;;;;12.68;3.15;;;;;;;;;;5095024;28;20204;-68
2022/05/04 03:54:21;;;;;;;13.45;3.95;;;;;;;;;;5095425;28;20197;-68
2022/05/04 03:56:50;;;;;;;13.88;3.40;;;;;;;;;;5095382;28;20196;-68
2022/05/04 03:59:17;;;;;;;14.60;3.90;;;;;;;;;;5094492;28;20701;-68
2022/05/04 04:01:44;;;;;;;15.00;3.95;;;;;;;;;;5094942;28;20602;-68
2022/05/04 04:04:12;;;;;;;14.23;4.13;;;;;;;;;;5094829;28;20196;-68
2022/05/04 04:06:39;;;;;;;13.00;4.13;;;;;;;;;;5095109;28;20203;-68
2022/05/04 04:09:07;;;;;;;13.43;3.13;;;;;;;;;;5094599;28;20200;-68
2022/05/04 04:11:35;;;;;;;13.05;3.00;;;;;;;;;;5094691;28;20210;-68
2022/05/04 04:14:03;;;;;;;17.17;3.33;;;;;;;;;;5094630;28;20200;-68
2022/05/04 04:16:31;;;;;;;15.65;3.60;;;;;;;;;;5094583;28;20196;-68
2022/05/04 04:18:58;;;;;;;13.13;3.55;;;;;;;;;;5094449;28;20235;-68
2022/05/04 04:24:10;;;;;;;15.20;3.65;;;;;;;;;;5094320;28;20250;-68
2022/05/04 04:26:39;;;;;;;13.00;3.40;;;;;;;;;;5094386;28;20207;-68
2022/05/04 04:29:08;;;;;;;17.05;3.67;;;;;;;;;;5093914;28;20265;-68
2022/05/04 04:31:35;;;;;;;13.00;3.00;;;;;;;;;;5093918;28;20287;-68
2022/05/04 04:34:03;;;;;;;11.98;3.10;;;;;;;;;;5094409;28;20250;-68
2022/05/04 04:36:31;;;;;;;12.43;3.08;;;;;;;;;;5094035;28;20278;-68
2022/05/04 04:38:58;;;;;;;12.35;2.50;;;;;;;;;;5094342;28;20260;-68
2022/05/04 04:41:25;;;;;;;13.15;3.60;;;;;;;;;;5093853;28;20250;-68
2022/05/04 04:43:53;;;;;;;12.25;2.63;;;;;;;;;;5094015;28;20207;-68
2022/05/04 04:46:22;;;;;;;14.73;3.05;;;;;;;;;;5094256;28;20243;-68
2022/05/04 04:48:50;;;;;;;12.27;3.10;;;;;;;;;;5094110;28;20199;-68
2022/05/04 04:51:17;;;;;;;11.70;2.45;;;;;;;;;;5093741;28;20290;-68
2022/05/04 04:53:45;;;;;;;12.15;2.30;;;;;;;;;;5093741;28;20665;-68
2022/05/04 04:56:12;;;;;;;12.45;2.70;;;;;;;;;;5093786;28;20240;-69
2022/05/04 04:58:40;;;;;;;13.10;2.90;;;;;;;;;;5093626;28;20227;-68
2022/05/04 05:01:07;;;;;;;16.13;3.35;;;;;;;;;;5094048;28;20200;-68
2022/05/04 05:03:36;;;;;;;12.57;2.70;;;;;;;;;;5093458;28;20216;-68
2022/05/04 05:06:03;;;;;;;13.18;3.10;;;;;;;;;;5093636;28;20203;-68
2022/05/04 05:08:31;;;;;;;13.15;3.17;;;;;;;;;;5093635;28;20207;-68
2022/05/04 05:10:58;;;;;;;13.20;3.20;;;;;;;;;;5093431;28;20200;-68
2022/05/04 05:13:26;;;;;;;12.82;2.63;;;;;;;;;;5093260;28;20208;-68
2022/05/04 05:16:08;;;;;;;12.52;2.90;;;;;;;;;;5093794;28;20193;-68
2022/05/04 05:18:37;;;;;;;13.57;2.90;;;;;;;;;;5093427;28;20701;-68
2022/05/04 05:21:04;;;;;;;12.32;2.30;;;;;;;;;;5093178;28;20655;-68
2022/05/04 05:23:32;;;;;;;14.95;3.60;;;;;;;;;;5093212;28;20273;-68
2022/05/04 05:25:59;;;;;;;18.42;6.25;;;;;;;;;;5093241;28;20205;-69
2022/05/04 05:28:27;;;;;;;14.43;3.60;;;;;;;;;;5093353;28;20208;-68
2022/05/04 05:30:54;;;;;;;15.13;2.70;;;;;;;;;;5093187;28;20545;-69
2022/05/04 05:33:21;;;;;;;13.23;2.50;;;;;;;;;;5092786;28;20521;-69
2022/05/04 05:35:50;;;;;;;11.93;2.10;;;;;;;;;;5092925;28;20442;-69
2022/05/04 05:38:18;;;;;;;12.80;2.00;;;;;;;;;;5093000;28;20449;-69
2022/05/04 05:40:45;;;;;;;12.90;2.30;;;;;;;;;;5092592;28;20952;-69
2022/05/04 05:43:13;;;;;;;11.90;2.00;;;;;;;;;;5091977;28;20969;-68
2022/05/04 05:45:40;;;;;;;40.43;15.17;;;;;;;;;;5093189;28;20434;-68
2022/05/04 05:48:08;;;;;;;12.70;2.10;;;;;;;;;;5092826;28;20434;-69
2022/05/04 05:50:36;;;;;;;13.37;2.30;;;;;;;;;;5092893;28;20521;-68
2022/05/04 05:53:05;;;;;;;18.13;2.30;;;;;;;;;;5092978;28;20443;-68
2022/05/04 05:55:33;;;;;;;13.23;2.37;;;;;;;;;;5092545;28;20445;-69
2022/05/04 05:58:01;;;;;;;17.20;4.03;;;;;;;;;;5092680;28;20462;-68
2022/05/04 06:00:28;;;;;;;19.20;5.10;;;;;;;;;;5092568;28;20513;-69
2022/05/04 06:02:55;;;;;;;13.53;2.03;;;;;;;;;;5092045;28;20462;-69
2022/05/04 06:05:23;;;;;;;12.90;2.13;;;;;;;;;;5092251;28;20434;-69
2022/05/04 06:07:50;;;;;;;14.43;2.30;;;;;;;;;;5092431;28;20996;-69
2022/05/04 06:10:20;;;;;;;13.40;2.50;;;;;;;;;;5093071;28;20466;-69
2022/05/04 06:12:47;;;;;;;23.50;7.87;;;;;;;;;;5092364;28;20438;-69
2022/05/04 06:15:15;;;;;;;13.27;1.90;;;;;;;;;;5092259;28;20470;-69
2022/05/04 06:17:45;;;;;;;11.70;1.90;;;;;;;;;;5092505;28;20525;-71
2022/05/04 06:20:13;;;;;;;13.10;2.43;;;;;;;;;;5092200;28;20850;-72
2022/05/04 06:22:40;;;;;;;14.47;2.37;;;;;;;;;;5092034;28;20447;-72
2022/05/04 06:25:08;;;;;;;13.07;2.23;;;;;;;;;;5092453;28;20500;-71
2022/05/04 06:27:38;;;;;;;14.60;2.67;;;;;;;;;;5092456;28;20464;-69
2022/05/04 06:35:37;;;;;;;18.43;4.70;;;;;;;;;;5092298;28;20818;-69
2022/05/04 06:38:05;;;;;;;15.40;3.67;;;;;;;;;;5092186;28;20453;-70
2022/05/04 06:40:33;;;;;;;12.43;2.00;;;;;;;;;;5091945;28;21024;-69
2022/05/04 06:43:03;;;;;;;14.00;2.43;;;;;;;;;;5092008;28;20439;-69
2022/05/04 06:45:30;;;;;;;22.60;7.73;;;;;;;;;;5091947;28;20447;-69
2022/05/04 06:47:58;;;;;;;26.70;7.47;;;;;;;;;;5091955;28;20450;-69
2022/05/04 06:50:25;;;;;;;12.50;2.20;;;;;;;;;;5091805;28;20448;-69
2022/05/04 06:52:52;;;;;;;16.20;2.50;;;;;;;;;;5092587;28;20471;-69
2022/05/04 06:55:20;;;;;;;15.03;3.10;;;;;;;;;;5095856;28;20447;-69
2022/05/04 06:57:47;;;;;;;14.10;2.30;;;;;;;;;;5096534;28;20540;-69
2022/05/04 07:00:18;;;;;;;12.23;1.90;;;;;;;;;;5096112;28;20491;-69
2022/05/04 07:02:45;;;;;;;17.27;5.40;;;;;;;;;;5095519;28;20473;-69
2022/05/04 07:05:13;;;;;;;20.20;5.93;;;;;;;;;;5096010;28;20446;-69
2022/05/04 07:07:41;;;;;;;19.90;4.83;;;;;;;;;;5096069;28;20442;-69
2022/05/04 07:10:09;;;;;;;18.73;2.60;;;;;;;;;;5095765;28;20475;-70
2022/05/04 07:12:36;;;;;;;16.37;3.20;;;;;;;;;;5096055;28;20440;-69
2022/05/04 07:15:04;;;;;;;14.50;2.40;;;;;;;;;;5096242;28;20797;-69
2022/05/04 07:17:34;;;;;;;13.00;1.80;;;;;;;;;;5095697;28;20808;-69
2022/05/04 07:20:01;;;;;;;13.60;2.60;;;;;;;;;;5095478;28;20606;-69
2022/05/04 07:22:28;;;;;;;13.43;2.30;;;;;;;;;;5095399;28;20445;-69
2022/05/04 07:24:56;;;;;;;15.70;2.53;;;;;;;;;;5095822;28;20461;-69
2022/05/04 07:27:23;;;;;;;12.50;2.00;;;;;;;;;;5095531;28;20451;-70
2022/05/04 07:29:51;;;;;;;13.03;2.07;;;;;;;;;;5095642;28;20852;-69
2022/05/04 07:32:18;;;;;;;15.67;2.00;;;;;;;;;;5095354;28;20931;-69
2022/05/04 07:34:48;;;;;;;12.43;1.83;;;;;;;;;;5095760;28;20811;-69
2022/05/04 07:37:16;;;;;;;13.73;2.33;;;;;;;;;;5095134;28;20445;-70
2022/05/04 07:42:28;;;;;;;12.20;2.03;;;;;;;;;;5095380;28;20469;-69
2022/05/04 07:44:59;;;;;;;15.00;2.00;;;;;;;;;;5095113;28;20449;-70
2022/05/04 07:47:27;;;;;;;12.50;2.00;;;;;;;;;;5095175;28;20871;-69
2022/05/04 07:49:56;;;;;;;13.10;2.23;;;;;;;;;;5095291;28;20499;-70
2022/05/04 07:52:24;;;;;;;12.43;1.80;;;;;;;;;;5095121;28;20842;-70
2022/05/04 07:54:52;;;;;;;12.67;2.03;;;;;;;;;;5094896;28;20520;-69
2022/05/04 07:57:19;;;;;;;13.70;2.07;;;;;;;;;;5094844;28;20441;-70
2022/05/04 08:04:16;;;;;;;12.00;1.87;;;;;;;;;;5094757;28;20931;-70
2022/05/04 08:05:21;;;;;;;15.10;2.30;;;;;;;;;;5093628;28;20439;-70
2022/05/04 08:07:48;;;;;;;12.03;1.60;;;;;;;;;;5094796;28;20438;-70
2022/05/04 08:10:16;;;;;;;13.90;1.90;;;;;;;;;;5094705;28;20441;-69
2022/05/04 08:12:43;;;;;;;14.97;1.90;;;;;;;;;;5094722;28;20442;-69
2022/05/04 08:15:12;;;;;;;12.70;1.80;;;;;;;;;;5094795;28;20523;-70
2022/05/04 08:17:40;;;;;;;12.37;1.80;;;;;;;;;;5094994;28;20464;-70
2022/05/04 08:20:08;;;;;;;13.47;2.00;;;;;;;;;;5094494;28;20483;-70
2022/05/04 08:22:37;;;;;;;12.70;1.70;;;;;;;;;;5094355;28;20441;-70
2022/05/04 08:25:05;;;;;;;14.50;2.20;;;;;;;;;;5094645;28;20452;-70
2022/05/04 08:27:33;;;;;;;13.40;2.20;;;;;;;;;;5094495;28;20533;-70
2022/05/04 08:30:00;;;;;;;12.40;2.00;;;;;;;;;;5094348;28;20499;-69
2022/05/04 08:32:29;;;;;;;12.73;2.07;;;;;;;;;;5094394;28;20441;-69
2022/05/04 08:34:56;;;;;;;12.50;1.90;;;;;;;;;;5094226;28;20505;-70
2022/05/04 08:37:24;;;;;;;12.73;2.13;;;;;;;;;;5094282;28;20498;-69
2022/05/04 08:39:53;;;;;;;14.13;1.70;;;;;;;;;;5094139;28;21072;-69
2022/05/04 08:42:21;;;;;;;12.73;1.80;;;;;;;;;;5094088;28;20452;-69
2022/05/04 08:44:49;;;;;;;12.80;2.07;;;;;;;;;;5094363;28;20520;-69
2022/05/04 08:47:17;;;;;;;12.50;2.07;;;;;;;;;;5093708;28;20947;-70
2022/05/04 08:49:46;;;;;;;13.40;2.20;;;;;;;;;;5094140;28;20432;-69
2022/05/04 08:52:15;;;;;;;12.17;1.53;;;;;;;;;;5094187;28;20918;-69
2022/05/04 08:54:42;;;;;;;13.37;2.10;;;;;;;;;;5093909;28;20438;-70
2022/05/04 08:57:12;;;;;;;11.80;1.60;;;;;;;;;;5093900;28;20449;-70
2022/05/04 08:59:41;;;;;;;13.03;2.00;;;;;;;;;;5093595;28;21087;-70
2022/05/04 09:02:10;;;;;;;12.27;1.80;;;;;;;;;;5093203;28;20465;-70
2022/05/04 09:04:37;;;;;;;16.57;2.60;;;;;;;;;;5093564;28;20452;-69
2022/05/04 09:07:05;;;;;;;12.80;2.10;;;;;;;;;;5093472;28;20440;-69
2022/05/04 09:09:35;;;;;;;14.30;1.93;;;;;;;;;;5093432;28;20448;-69
2022/05/04 09:12:03;;;;;;;14.17;2.23;;;;;;;;;;5093447;28;20430;-69
2022/05/04 09:14:35;;;;;;;13.73;2.20;;;;;;;;;;5093535;28;20823;-69
2022/05/04 09:17:04;;;;;;;15.53;2.13;;;;;;;;;;5093486;28;20447;-69
2022/05/04 09:19:32;;;;;;;13.10;1.90;;;;;;;;;;5093268;28;20448;-69
2022/05/04 09:22:00;;;;;;;12.30;1.97;;;;;;;;;;5093442;28;20438;-69
2022/05/04 09:24:28;;;;;;;13.33;2.43;;;;;;;;;;5093042;28;21033;-69
2022/05/04 09:26:56;;;;;;;14.60;2.53;;;;;;;;;;5093129;28;20437;-69
2022/05/04 09:29:34;;;;;;;15.40;2.10;;;;;;;;;;5093416;28;20494;-70
2022/05/04 09:32:13;;;;;;;12.70;2.10;;;;;;;;;;5093143;28;20434;-69
2022/05/04 09:34:40;;;;;;;13.10;2.50;;;;;;;;;;5093461;28;20446;-69
2022/05/04 09:45:36;;;;;;;13.10;2.33;;;;;;;;;;5092944;28;20462;-70
2022/05/04 09:48:06;;;;;;;13.43;1.90;;;;;;;;;;5092741;28;20437;-69
2022/05/04 09:50:39;;;;;;;12.67;2.13;;;;;;;;;;5092746;28;20973;-69
2022/05/04 09:53:07;;;;;;;13.10;2.20;;;;;;;;;;5093421;28;20442;-69
2022/05/04 09:55:36;;;;;;;13.13;2.50;;;;;;;;;;5092904;28;20454;-70
2022/05/04 09:58:04;;;;;;;12.57;1.97;;;;;;;;;;5092708;28;20450;-70
2022/05/04 10:00:31;;;;;;;13.27;2.70;;;;;;;;;;5092596;28;20517;-70
2022/05/04 10:02:58;;;;;;;14.33;2.17;;;;;;;;;;5092260;28;20454;-69
2022/05/04 10:05:28;;;;;;;13.30;2.00;;;;;;;;;;5092648;28;20841;-70
2022/05/04 10:07:56;;;;;;;12.60;2.17;;;;;;;;;;5092447;28;20442;-70
2022/05/04 10:10:25;;;;;;;14.90;2.50;;;;;;;;;;5092645;28;20469;-70
2022/05/04 10:12:52;;;;;;;12.90;2.00;;;;;;;;;;5092320;28;20533;-70
2022/05/04 10:15:21;;;;;;;13.50;2.13;;;;;;;;;;5092118;28;20438;-70
2022/05/04 10:17:51;;;;;;;13.10;2.30;;;;;;;;;;5092364;28;20441;-70
2022/05/04 10:20:19;;;;;;;12.60;2.40;;;;;;;;;;5092327;28;21006;-70
2022/05/04 10:22:54;;;;;;;13.57;2.50;;;;;;;;;;5092269;28;20455;-70
2022/05/04 10:25:22;;;;;;;13.17;2.20;;;;;;;;;;5091868;28;20451;-70
2022/05/04 10:27:49;;;;;;;12.73;2.23;;;;;;;;;;5092010;28;20441;-69
2022/05/04 10:30:31;;;;;;;14.53;2.53;;;;;;;;;;5092604;28;20432;-70
2022/05/04 10:32:59;;;;;;;15.00;3.10;;;;;;;;;;5092502;28;20438;-69
2022/05/04 10:35:33;;;;;;;14.53;2.63;;;;;;;;;;5091985;28;20802;-70
2022/05/04 10:38:11;;;;;;;16.70;2.90;;;;;;;;;;5092043;28;20434;-70
2022/05/04 10:40:40;;;;;;;12.60;1.80;;;;;;;;;;5092135;28;20477;-70
2022/05/04 10:43:08;;;;;;;13.20;2.20;;;;;;;;;;5092149;28;20447;-69
2022/05/04 10:45:36;;;;;;;13.30;2.10;;;;;;;;;;5092158;28;20453;-70
2022/05/04 10:48:37;;;;;;;14.53;2.30;;;;;;;;;;5092149;28;20430;-70
2022/05/04 10:51:07;;;;;;;12.93;2.07;;;;;;;;;;5092227;28;20423;-69
2022/05/04 10:53:47;;;;;;;12.67;2.03;;;;;;;;;;5092081;28;20536;-69
2022/05/04 10:56:16;;;;;;;13.57;2.27;;;;;;;;;;5092099;28;20474;-70
2022/05/04 10:58:45;;;;;;;12.70;2.10;;;;;;;;;;5091762;28;20445;-70
2022/05/04 11:01:14;;;;;;;13.53;2.20;;;;;;;;;;5091602;28;20477;-71
2022/05/04 11:03:50;;;;;;;12.10;2.00;;;;;;;;;;5091662;28;20458;-70
2022/05/04 11:06:24;;;;;;;15.57;2.33;;;;;;;;;;5091985;28;20882;-70
2022/05/04 11:08:56;;;;;;;12.13;2.00;;;;;;;;;;5091738;28;20809;-70
2022/05/04 11:11:24;;;;;;;13.93;2.70;;;;;;;;;;5091491;28;20828;-70
2022/05/04 11:13:52;;;;;;;12.30;1.87;;;;;;;;;;5091642;28;20502;-70
2022/05/04 11:16:20;;;;;;;19.03;2.10;;;;;;;;;;5091683;28;20454;-70
2022/05/04 11:18:48;;;;;;;13.50;2.40;;;;;;;;;;5091684;28;20443;-70
2022/05/04 11:21:16;;;;;;;13.80;2.67;;;;;;;;;;5091700;28;20486;-71
2022/05/04 11:23:47;;;;;;;14.73;2.60;;;;;;;;;;5091463;28;20568;-70
2022/05/04 11:26:20;;;;;;;14.80;2.20;;;;;;;;;;5091962;28;20435;-70
2022/05/04 11:28:47;;;;;;;13.00;2.10;;;;;;;;;;5091612;28;20447;-71
2022/05/04 11:31:15;;;;;;;12.40;2.23;;;;;;;;;;5091560;28;20446;-70
2022/05/04 11:33:43;;;;;;;11.93;1.90;;;;;;;;;;5091675;28;20438;-70
2022/05/04 11:36:11;;;;;;;12.23;2.00;;;;;;;;;;5091423;28;20435;-70
2022/05/04 11:38:39;;;;;;;14.47;2.53;;;;;;;;;;5092077;28;20502;-70
2022/05/04 11:41:08;;;;;;;13.40;2.40;;;;;;;;;;5095599;28;20477;-70
2022/05/04 11:43:39;;;;;;;24.70;7.43;;;;;;;;;;5095377;28;20440;-70
2022/05/04 11:46:07;;;;;;;13.07;2.37;;;;;;;;;;5095321;28;20441;-70
2022/05/04 11:48:36;;;;;;;14.47;3.10;;;;;;;;;;5095077;28;20437;-70
2022/05/04 11:51:03;;;;;;;13.17;2.30;;;;;;;;;;5095381;28;20449;-71
2022/05/04 11:53:31;;;;;;;16.47;2.50;;;;;;;;;;5094805;28;20445;-70
2022/05/04 11:55:59;;;;;;;15.50;2.50;;;;;;;;;;5095194;28;20447;-70
2022/05/04 11:58:28;;;;;;;12.83;2.20;;;;;;;;;;5094929;28;20931;-70
2022/05/04 12:00:57;;;;;;;14.30;2.20;;;;;;;;;;5094858;28;20469;-71
2022/05/04 12:03:25;;;;;;;15.97;2.30;;;;;;;;;;5094546;28;20579;-71
2022/05/04 12:05:54;;;;;;;13.17;2.13;;;;;;;;;;5095217;28;20433;-70
2022/05/04 12:08:22;;;;;;;14.70;2.20;;;;;;;;;;5094965;28;20453;-70
2022/05/04 12:10:50;;;;;;;15.27;2.87;;;;;;;;;;5094825;28;20532;-70
2022/05/04 12:13:21;;;;;;;12.97;2.23;;;;;;;;;;5094403;28;20931;-70
2022/05/04 12:15:50;;;;;;;14.10;2.30;;;;;;;;;;5094632;28;20929;-70
2022/05/04 12:18:20;;;;;;;13.90;2.23;;;;;;;;;;5094922;28;20861;-71
2022/05/04 12:20:48;;;;;;;12.87;2.13;;;;;;;;;;5094493;28;20474;-71
2022/05/04 12:23:15;;;;;;;12.63;2.13;;;;;;;;;;5094373;28;20474;-70
2022/05/04 12:25:44;;;;;;;13.70;2.20;;;;;;;;;;5094727;28;20841;-71
2022/05/04 12:28:11;;;;;;;13.97;2.33;;;;;;;;;;5094400;28;20453;-71
2022/05/04 12:33:34;;;;;;;17.63;2.20;;;;;;;;;;5094245;28;20414;-70
2022/05/04 12:36:04;;;;;;;13.50;2.50;;;;;;;;;;5094400;28;20466;-71
2022/05/04 12:38:33;;;;;;;12.20;2.07;;;;;;;;;;5094213;28;20435;-71
2022/05/04 12:41:00;;;;;;;12.60;2.13;;;;;;;;;;5093978;28;20481;-70
2022/05/04 12:43:31;;;;;;;13.00;2.00;;;;;;;;;;5094095;28;20503;-71
2022/05/04 12:45:59;;;;;;;13.60;1.80;;;;;;;;;;5094022;28;20860;-71
2022/05/04 12:48:26;;;;;;;15.10;2.30;;;;;;;;;;5094188;28;20902;-71
2022/05/04 12:50:57;;;;;;;12.30;2.03;;;;;;;;;;5093426;28;20453;-71
2022/05/04 12:53:25;;;;;;;13.57;2.10;;;;;;;;;;5093603;28;20539;-72
2022/05/04 12:58:37;;;;;;;16.97;2.17;;;;;;;;;;5094144;28;20426;-71
2022/05/04 13:01:05;;;;;;;13.13;2.10;;;;;;;;;;5093935;28;20480;-72
2022/05/04 13:03:33;;;;;;;14.43;2.40;;;;;;;;;;5093102;28;20458;-71
2022/05/04 13:06:03;;;;;;;16.17;2.00;;;;;;;;;;5093497;28;20437;-71
2022/05/04 13:08:30;;;;;;;13.97;2.30;;;;;;;;;;5093749;28;20450;-71
2022/05/04 13:10:58;;;;;;;12.83;2.20;;;;;;;;;;5093528;28;20445;-72
2022/05/04 13:13:26;;;;;;;15.40;1.90;;;;;;;;;;5093276;28;20443;-71
2022/05/04 13:15:53;;;;;;;13.17;2.20;;;;;;;;;;5093416;28;20873;-71
2022/05/04 13:18:21;;;;;;;13.17;2.37;;;;;;;;;;5093263;28;20451;-71
2022/05/04 13:20:49;;;;;;;13.50;2.30;;;;;;;;;;5093563;28;20497;-71
2022/05/04 13:23:18;;;;;;;15.33;2.27;;;;;;;;;;5093331;28;20569;-71
2022/05/04 13:25:46;;;;;;;14.20;2.30;;;;;;;;;;5093245;28;20437;-71
2022/05/04 13:28:13;;;;;;;12.70;2.10;;;;;;;;;;5093166;28;20437;-72
2022/05/04 13:30:41;;;;;;;12.80;2.10;;;;;;;;;;5093031;28;20445;-71
2022/05/04 13:33:09;;;;;;;12.63;2.27;;;;;;;;;;5093054;28;20438;-71
2022/05/04 13:35:37;;;;;;;13.00;2.17;;;;;;;;;;5093287;28;20449;-72
2022/05/04 13:38:05;;;;;;;13.70;2.37;;;;;;;;;;5093508;28;20438;-72
2022/05/04 13:40:36;;;;;;;12.93;2.50;;;;;;;;;;5092963;28;20431;-72
2022/05/04 13:43:03;;;;;;;15.33;2.27;;;;;;;;;;5093147;28;20528;-72
2022/05/04 13:45:31;;;;;;;17.23;2.47;;;;;;;;;;5092705;28;20786;-71
2022/05/04 13:47:58;;;;;;;15.10;2.20;;;;;;;;;;5093038;28;20448;-71
2022/05/04 13:53:16;;;;;;;13.20;2.30;;;;;;;;;;5092698;28;20429;-71
2022/05/04 13:55:47;;;;;;;16.43;2.50;;;;;;;;;;5092727;28;20469;-71
2022/05/04 13:58:14;;;;;;;13.80;2.50;;;;;;;;;;5093131;28;20834;-71
2022/05/04 14:00:42;;;;;;;12.90;2.23;;;;;;;;;;5093002;28;20448;-71
2022/05/04 14:03:09;;;;;;;13.60;2.07;;;;;;;;;;5091490;28;20462;-71
2022/05/04 14:05:37;;;;;;;15.10;2.40;;;;;;;;;;5092880;28;20449;-71
2022/05/04 14:08:05;;;;;;;13.80;2.10;;;;;;;;;;5092548;28;20943;-71
2022/05/04 14:10:32;;;;;;;14.83;2.20;;;;;;;;;;5092378;28;21033;-71
2022/05/04 14:13:01;;;;;;;13.27;2.30;;;;;;;;;;5092636;28;20454;-72
2022/05/04 14:15:29;;;;;;;14.63;2.23;;;;;;;;;;5092150;28;20442;-71
2022/05/04 14:17:56;;;;;;;17.20;2.53;;;;;;;;;;5092560;28;20453;-71
2022/05/04 14:20:24;;;;;;;15.10;2.27;;;;;;;;;;5092338;28;20466;-72
2022/05/04 14:22:51;;;;;;;14.80;3.23;;;;;;;;;;5092429;28;20493;-71
2022/05/04 14:25:18;;;;;;;14.47;2.73;;;;;;;;;;5092497;28;20441;-71
2022/05/04 14:27:46;;;;;;;15.70;3.10;;;;;;;;;;5092746;28;20813;-71
2022/05/04 14:30:16;;;;;;;13.80;2.50;;;;;;;;;;5092404;28;20505;-72
2022/05/04 14:32:44;;;;;;;14.00;2.70;;;;;;;;;;5092115;28;20472;-72
2022/05/04 14:35:12;;;;;;;15.83;2.67;;;;;;;;;;5091818;28;20959;-71
2022/05/04 14:37:39;;;;;;;14.20;2.20;;;;;;;;;;5092342;28;20442;-71
2022/05/04 14:40:07;;;;;;;14.40;2.33;;;;;;;;;;5092316;28;20637;-72
2022/05/04 14:42:34;;;;;;;16.47;2.37;;;;;;;;;;5091959;28;20490;-72
2022/05/04 14:45:02;;;;;;;14.37;3.30;;;;;;;;;;5091995;28;20433;-71
2022/05/04 14:47:32;;;;;;;15.87;3.17;;;;;;;;;;5091872;28;20444;-71
2022/05/04 14:49:59;;;;;;;13.33;2.00;;;;;;;;;;5092079;28;20449;-71
2022/05/04 14:52:26;;;;;;;13.40;2.60;;;;;;;;;;5092119;28;20442;-71
2022/05/04 14:54:54;;;;;;;15.13;2.50;;;;;;;;;;5092391;28;20434;-71
2022/05/04 14:57:22;;;;;;;14.80;2.60;;;;;;;;;;5091807;28;20446;-71
2022/05/04 14:59:49;;;;;;;16.00;3.30;;;;;;;;;;5092218;28;20438;-71
2022/05/04 15:02:16;;;;;;;16.40;3.43;;;;;;;;;;5091513;28;20486;-71
2022/05/04 15:05:03;;;;;;;13.40;2.40;;;;;;;;;;5091871;28;20442;-71
2022/05/04 15:07:32;;;;;;;13.30;2.50;;;;;;;;;;5091821;28;20836;-71
2022/05/04 15:10:00;;;;;;;14.87;3.50;;;;;;;;;;5091884;28;20434;-71
2022/05/04 15:12:27;;;;;;;14.60;2.90;;;;;;;;;;5091667;28;20858;-71
2022/05/04 15:14:55;;;;;;;13.33;2.17;;;;;;;;;;5094150;28;20446;-71